Weather Models
Both GFS & NAM
00z 06z 12z 18z
24hr Precip
00z 06z 12z 18z
36hr Simulated radar
00z 06z 12z 18z
SKEWT Soundings
00z 12z
Current Conditions (Updated 3:30pm on 12/4/20)
Temperature
 47°
0.30
48°  
46°  
0
10
20
30
40
50
60
70
80
90
100
Dew Point
40°
40°  
29°  
-20
-10
0
10
20
30
40
50
60
70
80
Wind Chill
47°
48°  
40°  
-20
-10
0
10
20
30
40
50
60
70
80
Wind Chill
Humidity
75%
75% 
50% 
0
10
20
30
40
50
60
70
80
90
100
Barometer
30.04
   Steady
30.19  
30.01  
28.00
28.30
28.60
28.90
29.20
29.50
29.80
30.10
30.40
30.70
31.00
Temperature
Dew Point
Humidity
Pressure
Wind
0mph
  N
Daily Rain
.00
.05
.10
.15
.20
.25
.30
.35
.40
.45
.50
Rain Today
 0.18" 
Month Rain
0.00
0.20
0.40
0.60
0.80
1.00
1.20
1.40
1.60
1.80
2.00
Month Rain
 0.19" 
Year Rain
0.00
5.00
10.00
15.00
20.00
25.00
30.00
35.00
40.00
45.00
50.00
Year Rain
 44.90" 
Sun & Moon Data
Sunrise 7:06am
Sunset 4:35pm
Moonrise 8:23pm
Moonset 10:47am
Moon % 89%
Other Rain Data
Past Hour 0.00 Past 24 Hours 0.18
Past 3 Hours 0.07 Past 7 Days 1.35
Past 6 Hours 0.18
Cloud Height
1878


Current Front Map
Current Satellite map
Current Radar
7 Day Forecast
NWS Forecast for Philadelphia PA
National Weather Service Forecast for: Philadelphia PA
Issued by: National Weather Service Philadelphia, PA
Updated: 1:09 pm EST Dec 4, 2020

Philadelphia PA.
 
This
Afternoon
This Afternoon: Showers.  High near 47. South wind around 5 mph.  Chance of precipitation is 80%. New precipitation amounts of less than a tenth of an inch possible.
Showers
Tonight

Tonight: Showers likely before 7pm, then rain after 7pm.  Low around 42. Southwest wind around 5 mph becoming calm.  Chance of precipitation is 100%. New precipitation amounts between a half and three quarters of an inch possible.
Rain
Saturday

Saturday: Rain, mainly before 1pm.  High near 45. Breezy, with a northwest wind 15 to 20 mph, with gusts as high as 30 mph.  Chance of precipitation is 80%. New precipitation amounts between a quarter and half of an inch possible.
Rain and
Breezy
Saturday
Night
Saturday Night: Partly cloudy, with a low around 32. Northwest wind around 15 mph, with gusts as high as 25 mph.
Partly Cloudy
Sunday

Sunday: Sunny, with a high near 41. Northwest wind 10 to 15 mph.
Sunny
Sunday
Night
Sunday Night: Mostly clear, with a low around 28.
Mostly Clear
Monday

Monday: Mostly sunny, with a high near 41.
Mostly Sunny
Monday
Night
Monday Night: Partly cloudy, with a low around 28.
Partly Cloudy
Tuesday

Tuesday: Mostly sunny, with a high near 43.
Mostly Sunny
Hi 47 °F Lo 42 °F Hi 45 °F Lo 32 °F Hi 41 °F Lo 28 °F Hi 41 °F Lo 28 °F Hi 43 °F

 

This Afternoon
 
Showers. High near 47. South wind around 5 mph. Chance of precipitation is 80%. New precipitation amounts of less than a tenth of an inch possible.
Tonight
 
Showers likely before 7pm, then rain after 7pm. Low around 42. Southwest wind around 5 mph becoming calm. Chance of precipitation is 100%. New precipitation amounts between a half and three quarters of an inch possible.
Saturday
 
Rain, mainly before 1pm. High near 45. Breezy, with a northwest wind 15 to 20 mph, with gusts as high as 30 mph. Chance of precipitation is 80%. New precipitation amounts between a quarter and half of an inch possible.
Saturday Night
 
Partly cloudy, with a low around 32. Northwest wind around 15 mph, with gusts as high as 25 mph.
Sunday
 
Sunny, with a high near 41. Northwest wind 10 to 15 mph.
Sunday Night
 
Mostly clear, with a low around 28.
Monday
 
Mostly sunny, with a high near 41.
Monday Night
 
Partly cloudy, with a low around 28.
Tuesday
 
Mostly sunny, with a high near 43.
Tuesday Night
 
Mostly clear, with a low around 29.
Wednesday
 
Mostly sunny, with a high near 45.
Wednesday Night
 
Partly cloudy, with a low around 33.
Thursday
 
Mostly sunny, with a high near 49.
Thursday Night
 
Partly cloudy, with a low around 32.
Friday
 
Partly sunny, with a high near 49.

 

Forecast from NOAA-NWS for Philadelphia PA.

Area Weather Current Conditions
Nearby METAR Reports

KPHL - Philadelphia, Pennsylvania
Updated: Fri, 04-Dec-2020 2:54pm EST
Light rain, Overcast
Light rain, Overcast
 Wind from WSW
Wind: WSW 8 mph , 13 km/h
Temperature: 46°F , 8°C
Wind Chill: 42°F , 6°C
Dew Point: 41°F , 5°C
Humidity: 82%
Barometer: 30.03 inHg , 1016.9 hPa
Summary: Light Rain
Clouds: Overcast
Visibility: 10 miles , 16 km
Cloud details: Few Clouds 6500 ft
Mostly Cloudy 8500 ft
Overcast 11000 ft
2020/12/04 19:54 KPHL 041954Z 25007KT 10SM -RA FEW065 BKN085 OVC110 08/05 A3003 RMK AO2 RAE28B48 SLP169 P0001 T00780050
KMPO - Mt. Pocono, Pennsylvania
Updated: Fri, 04-Dec-2020 2:53pm EST
Overcast
Overcast
 Wind from SSW
Wind: SSW 13 mph , 20 km/h, Gust: 20 mph , 31 km/h
Temperature: 43°F , 6°C
Wind Chill: 36°F , 2°C
Dew Point: 25°F , -4°C
Humidity: 49%
Barometer: 29.91 inHg , 1012.9 hPa
Clouds: Overcast
Visibility: 10 miles , 16 km
Cloud details: Overcast 9000 ft
2020/12/04 19:53 KMPO 041953Z AUTO 21011G17KT 10SM OVC090 06/M04 A2991 RMK AO2 SLP141 T00611039
 
KACY - Atlantic City, New Jersey
Updated: Fri, 04-Dec-2020 2:54pm EST
Partly Cloudy
Partly Cloudy
 Wind from SW
Wind: SW 7 mph , 11 km/h
Temperature: 54°F , 12°C
Dew Point: 36°F , 2°C
Humidity: 51%
Barometer: 30.03 inHg , 1016.9 hPa
Clouds: Partly Cloudy
Visibility: 10 miles , 16 km
Cloud details: Partly Cloudy 11000 ft
2020/12/04 19:54 KACY 041954Z 22006KT 10SM SCT110 12/02 A3003 RMK AO2 SLP167 T01220017
KMIV - Millville, New Jersey
Updated: Fri, 04-Dec-2020 2:54pm EST
Partly Cloudy
Partly Cloudy
 Wind from WSW
Wind: WSW 6 mph , 9 km/h
Temperature: 54°F , 12°C
Dew Point: 32°F , 0°C
Humidity: 44%
Barometer: 30.03 inHg , 1016.9 hPa
Clouds: Partly Cloudy
Visibility: 10 miles , 16 km
Cloud details: Partly Cloudy 11000 ft
2020/12/04 19:54 KMIV 041954Z AUTO 24005KT 10SM SCT110 12/00 A3003 RMK AO2 SLP166 T01170000
 
KWWD - Wildwood, New Jersey
Updated: Fri, 04-Dec-2020 1:56pm EST
NOT Current
Overcast
Overcast
 Wind from SSW
Wind: SSW 8 mph , 13 km/h
Temperature: 55°F , 13°C
Dew Point: 39°F , 4°C
Humidity: 55%
Barometer: 30.04 inHg , 1017.3 hPa
Clouds: Overcast
Visibility: 10 miles , 16 km
Cloud details: Overcast 9500 ft
2020/12/04 18:56 KWWD 041856Z AUTO 20007KT 10SM OVC095 13/04 A3004 RMK AO2 RAB44E55 SLP174 P0000 T01330039
KDOV - Dover Afb, Delaware
Updated: Fri, 04-Dec-2020 2:55pm EST
Few Clouds
Few Clouds
 Wind from SSW
Wind: SSW 5 mph , 7 km/h
Temperature: 54°F , 12°C
Dew Point: 36°F , 2°C
Humidity: 51%
Barometer: 30.01 inHg , 1016.3 hPa
Clouds: Few Clouds
Visibility: 10 miles , 16 km
Cloud details: Few Clouds 11000 ft
2020/12/04 19:55 KDOV 041955Z 20004KT 10SM FEW110 12/02 A3001 RMK SLP166 T01210023 $
Severe Weather Map